createdAt,value
2017-10-09T00:00:58.622Z,1011.64
2017-10-09T00:02:07.451Z,1011.69
2017-10-09T00:03:16.286Z,1011.67
2017-10-09T00:04:25.115Z,1011.68
2017-10-09T00:05:33.950Z,1011.69
2017-10-09T00:06:42.775Z,1011.69
2017-10-09T00:07:51.604Z,1011.68
2017-10-09T00:09:00.434Z,1011.65
2017-10-09T00:10:09.271Z,1011.64
2017-10-09T00:11:18.105Z,1011.66
2017-10-09T00:12:26.931Z,1011.66
2017-10-09T00:13:35.765Z,1011.66
2017-10-09T00:14:44.592Z,1011.65
2017-10-09T00:15:53.420Z,1011.64
2017-10-09T00:17:02.252Z,1011.62
2017-10-09T00:18:11.088Z,1011.65
2017-10-09T00:19:19.917Z,1011.61
2017-10-09T00:20:28.748Z,1011.63
2017-10-09T00:21:37.581Z,1011.63
2017-10-09T00:22:46.412Z,1011.62
2017-10-09T00:23:55.245Z,1011.64
2017-10-09T00:25:04.075Z,1011.64
2017-10-09T00:26:12.906Z,1011.62
2017-10-09T00:27:21.741Z,1011.61
2017-10-09T00:28:30.569Z,1011.63
2017-10-09T00:29:39.398Z,1011.63
2017-10-09T00:30:48.233Z,1011.62
2017-10-09T00:31:57.063Z,1011.57
2017-10-09T00:33:05.897Z,1011.61
2017-10-09T00:34:14.727Z,1011.57
2017-10-09T00:35:23.560Z,1011.61
2017-10-09T00:36:32.387Z,1011.62
2017-10-09T00:37:41.221Z,1011.61
2017-10-09T00:38:50.054Z,1011.62
2017-10-09T00:39:58.888Z,1011.66
2017-10-09T00:41:07.717Z,1011.59
2017-10-09T00:42:16.545Z,1011.6
2017-10-09T00:43:25.372Z,1011.64
2017-10-09T00:44:34.208Z,1011.62
2017-10-09T00:45:43.046Z,1011.67
2017-10-09T00:46:51.872Z,1011.63
2017-10-09T00:48:00.696Z,1011.58
2017-10-09T00:49:09.532Z,1011.62
2017-10-09T00:50:18.357Z,1011.6
2017-10-09T00:51:27.197Z,1011.65
2017-10-09T00:52:36.026Z,1011.62
2017-10-09T00:53:44.853Z,1011.61
2017-10-09T00:54:53.677Z,1011.61
2017-10-09T00:56:02.508Z,1011.63
2017-10-09T00:57:11.337Z,1011.65
2017-10-09T00:58:20.175Z,1011.62
2017-10-09T00:59:29.006Z,1011.63
2017-10-09T01:00:37.839Z,1011.68
2017-10-09T01:01:46.666Z,1011.65
2017-10-09T01:02:55.498Z,1011.63
2017-10-09T01:04:04.325Z,1011.64
2017-10-09T01:05:13.161Z,1011.62
2017-10-09T01:06:21.996Z,1011.68
2017-10-09T01:07:30.827Z,1011.6
2017-10-09T01:08:39.656Z,1011.64
2017-10-09T01:09:48.496Z,1011.63
2017-10-09T01:10:57.319Z,1011.62
2017-10-09T01:12:06.148Z,1011.59
2017-10-09T01:13:14.985Z,1011.6
2017-10-09T01:14:23.808Z,1011.61
2017-10-09T01:15:32.634Z,1011.59
2017-10-09T01:16:41.469Z,1011.62
2017-10-09T01:17:50.296Z,1011.6
2017-10-09T01:18:59.127Z,1011.6
2017-10-09T01:20:07.956Z,1011.53
2017-10-09T01:21:16.786Z,1011.57
2017-10-09T01:22:25.615Z,1011.59
2017-10-09T01:23:34.444Z,1011.57
2017-10-09T01:24:43.275Z,1011.55
2017-10-09T01:25:52.110Z,1011.61
2017-10-09T01:27:00.945Z,1011.59
2017-10-09T01:28:09.774Z,1011.58
2017-10-09T01:29:18.603Z,1011.57
2017-10-09T01:30:27.439Z,1011.6
2017-10-09T01:31:36.268Z,1011.55
2017-10-09T01:32:45.097Z,1011.55
2017-10-09T01:33:53.929Z,1011.57
2017-10-09T01:35:02.763Z,1011.54
2017-10-09T01:36:11.591Z,1011.54
2017-10-09T01:37:20.420Z,1011.53
2017-10-09T01:38:29.250Z,1011.52
2017-10-09T01:39:38.081Z,1011.52
2017-10-09T01:40:46.910Z,1011.56
2017-10-09T01:41:55.738Z,1011.52
2017-10-09T01:43:04.572Z,1011.57
2017-10-09T01:44:13.401Z,1011.54
2017-10-09T01:45:22.230Z,1011.55
2017-10-09T01:46:31.063Z,1011.56
2017-10-09T01:47:39.892Z,1011.57
2017-10-09T01:48:48.724Z,1011.54
2017-10-09T01:49:57.548Z,1011.51
2017-10-09T01:51:06.377Z,1011.53
2017-10-09T01:52:15.210Z,1011.52
2017-10-09T01:53:24.040Z,1011.51
2017-10-09T01:54:32.870Z,1011.52
2017-10-09T01:55:41.704Z,1011.51
2017-10-09T01:56:50.536Z,1011.5
2017-10-09T01:57:59.361Z,1011.54
2017-10-09T01:59:08.190Z,1011.53
2017-10-09T02:00:17.025Z,1011.52
2017-10-09T02:01:25.862Z,1011.52
2017-10-09T02:02:34.691Z,1011.49
2017-10-09T02:03:43.521Z,1011.52
2017-10-09T02:04:52.351Z,1011.53
2017-10-09T02:06:01.180Z,1011.52
2017-10-09T02:07:10.016Z,1011.53
2017-10-09T02:08:18.851Z,1011.54
2017-10-09T02:09:27.674Z,1011.53
2017-10-09T02:10:36.509Z,1011.55
2017-10-09T02:11:45.333Z,1011.56
2017-10-09T02:12:54.164Z,1011.58
2017-10-09T02:14:02.999Z,1011.6
2017-10-09T02:15:11.829Z,1011.58
2017-10-09T02:16:20.659Z,1011.59
2017-10-09T02:17:29.491Z,1011.59
2017-10-09T02:18:38.319Z,1011.6
2017-10-09T02:19:47.148Z,1011.59
2017-10-09T02:20:55.982Z,1011.57
2017-10-09T02:22:04.812Z,1011.61
2017-10-09T02:23:13.641Z,1011.6
2017-10-09T02:24:22.473Z,1011.57
2017-10-09T02:25:31.303Z,1011.59
2017-10-09T02:26:40.136Z,1011.62
2017-10-09T02:27:48.968Z,1011.61
2017-10-09T02:28:57.796Z,1011.6
2017-10-09T02:30:06.626Z,1011.63
2017-10-09T02:31:15.459Z,1011.61
2017-10-09T02:32:24.610Z,1011.62
2017-10-09T02:33:33.438Z,1011.6
2017-10-09T02:34:42.595Z,1011.62
2017-10-09T02:35:51.424Z,1011.61
2017-10-09T02:37:00.253Z,1011.63
2017-10-09T02:38:09.082Z,1011.62
2017-10-09T02:39:17.914Z,1011.66
2017-10-09T02:40:26.745Z,1011.64
2017-10-09T02:41:35.571Z,1011.64
2017-10-09T02:42:44.405Z,1011.66
2017-10-09T02:43:53.238Z,1011.66
2017-10-09T02:45:02.062Z,1011.65
2017-10-09T02:46:10.892Z,1011.67
2017-10-09T02:47:19.720Z,1011.68
2017-10-09T02:48:28.552Z,1011.64
2017-10-09T02:49:37.384Z,1011.65
2017-10-09T02:50:46.217Z,1011.63
2017-10-09T02:51:55.044Z,1011.68
2017-10-09T02:53:03.870Z,1011.62
2017-10-09T02:54:12.701Z,1011.68
2017-10-09T02:55:21.531Z,1011.66
2017-10-09T02:56:30.367Z,1011.73
2017-10-09T02:57:39.193Z,1011.65
2017-10-09T02:58:48.021Z,1011.7
2017-10-09T02:59:56.854Z,1011.7
2017-10-09T03:01:05.678Z,1011.73
2017-10-09T03:02:14.512Z,1011.66
2017-10-09T03:03:23.344Z,1011.68
2017-10-09T03:04:32.165Z,1011.66
2017-10-09T03:05:40.997Z,1011.62
2017-10-09T03:06:49.824Z,1011.65
2017-10-09T03:07:58.657Z,1011.64
2017-10-09T03:09:07.482Z,1011.63
2017-10-09T03:10:16.319Z,1011.65
2017-10-09T03:11:25.148Z,1011.62
2017-10-09T03:12:33.978Z,1011.65
2017-10-09T03:13:42.807Z,1011.66
2017-10-09T03:14:51.637Z,1011.62
2017-10-09T03:16:00.468Z,1011.64
2017-10-09T03:17:09.297Z,1011.65
2017-10-09T03:18:18.125Z,1011.63
2017-10-09T03:19:26.960Z,1011.59
2017-10-09T03:20:35.790Z,1011.58
2017-10-09T03:21:44.624Z,1011.6
2017-10-09T03:22:53.449Z,1011.6
2017-10-09T03:24:02.280Z,1011.6
2017-10-09T03:25:11.104Z,1011.61
2017-10-09T03:26:19.931Z,1011.63
2017-10-09T03:27:28.764Z,1011.58
2017-10-09T03:28:37.596Z,1011.67
2017-10-09T03:29:46.426Z,1011.7
2017-10-09T03:30:55.258Z,1011.64
2017-10-09T03:32:04.088Z,1011.7
2017-10-09T03:33:12.916Z,1011.69
2017-10-09T03:34:21.745Z,1011.68
2017-10-09T03:35:30.579Z,1011.65
2017-10-09T03:36:39.403Z,1011.7
2017-10-09T03:37:48.237Z,1011.66
2017-10-09T03:38:57.064Z,1011.64
2017-10-09T03:40:05.896Z,1011.62
2017-10-09T03:41:14.728Z,1011.65
2017-10-09T03:42:23.882Z,1011.65
2017-10-09T03:43:32.707Z,1011.7
2017-10-09T03:44:41.861Z,1011.71
2017-10-09T03:45:50.694Z,1011.68
2017-10-09T03:46:59.523Z,1011.65
2017-10-09T03:48:08.351Z,1011.63
2017-10-09T03:49:17.178Z,1011.63
2017-10-09T03:50:26.012Z,1011.6
2017-10-09T03:51:34.846Z,1011.6
2017-10-09T03:52:43.675Z,1011.6
2017-10-09T03:53:52.505Z,1011.6
2017-10-09T03:55:01.331Z,1011.66
2017-10-09T03:56:10.164Z,1011.63
2017-10-09T03:57:18.999Z,1011.64
2017-10-09T03:58:27.821Z,1011.63
2017-10-09T03:59:36.652Z,1011.7
2017-10-09T04:00:45.478Z,1011.66
2017-10-09T04:01:54.313Z,1011.7
2017-10-09T04:03:03.147Z,1011.7
2017-10-09T04:04:11.976Z,1011.73
2017-10-09T04:05:20.804Z,1011.7
2017-10-09T04:06:29.634Z,1011.68
2017-10-09T04:07:38.463Z,1011.7
2017-10-09T04:08:47.293Z,1011.7
2017-10-09T04:09:56.124Z,1011.73
2017-10-09T04:11:04.946Z,1011.75
2017-10-09T04:12:13.773Z,1011.75
2017-10-09T04:13:22.607Z,1011.71
2017-10-09T04:14:31.433Z,1011.73
2017-10-09T04:15:40.265Z,1011.65
2017-10-09T04:16:49.095Z,1011.65
2017-10-09T04:17:57.924Z,1011.64
2017-10-09T04:19:06.753Z,1011.7
2017-10-09T04:20:15.588Z,1011.67
2017-10-09T04:21:24.420Z,1011.72
2017-10-09T04:22:33.247Z,1011.75
2017-10-09T04:23:42.077Z,1011.7
2017-10-09T04:24:50.904Z,1011.7
2017-10-09T04:25:59.736Z,1011.72
2017-10-09T04:27:08.568Z,1011.71
2017-10-09T04:28:17.394Z,1011.68
2017-10-09T04:29:26.223Z,1011.74
2017-10-09T04:30:35.055Z,1011.66
2017-10-09T04:31:43.886Z,1011.69
2017-10-09T04:32:52.713Z,1011.69
2017-10-09T04:34:01.544Z,1011.68
2017-10-09T04:35:10.378Z,1011.67
2017-10-09T04:36:19.205Z,1011.66
2017-10-09T04:37:28.034Z,1011.65
2017-10-09T04:38:36.862Z,1011.67
2017-10-09T04:39:45.690Z,1011.65
2017-10-09T04:40:54.516Z,1011.66
2017-10-09T04:42:03.351Z,1011.64
2017-10-09T04:43:12.182Z,1011.63
2017-10-09T04:44:21.015Z,1011.68
2017-10-09T04:45:29.836Z,1011.67
2017-10-09T04:46:38.663Z,1011.69
2017-10-09T04:47:47.497Z,1011.66
2017-10-09T04:48:56.331Z,1011.66
2017-10-09T04:50:05.157Z,1011.68
2017-10-09T04:51:13.989Z,1011.64
2017-10-09T04:52:22.819Z,1011.63
2017-10-09T04:53:31.644Z,1011.65
2017-10-09T04:54:40.477Z,1011.62
2017-10-09T04:55:49.305Z,1011.59
2017-10-09T04:56:58.137Z,1011.59
2017-10-09T04:58:07.296Z,1011.57
2017-10-09T04:59:16.125Z,1011.6
2017-10-09T05:00:24.950Z,1011.6
2017-10-09T05:01:33.777Z,1011.57
2017-10-09T05:02:42.934Z,1011.56
2017-10-09T05:03:51.765Z,1011.62
2017-10-09T05:05:00.597Z,1011.58
2017-10-09T05:06:09.424Z,1011.54
2017-10-09T05:07:18.254Z,1011.62
2017-10-09T05:08:27.084Z,1011.58
2017-10-09T05:09:35.919Z,1011.62
2017-10-09T05:10:44.748Z,1011.61
2017-10-09T05:11:53.573Z,1011.63
2017-10-09T05:13:02.725Z,1011.59
2017-10-09T05:14:11.552Z,1011.59
2017-10-09T05:15:20.437Z,1011.59
2017-10-09T05:16:29.271Z,1011.56
2017-10-09T05:17:38.098Z,1011.56
2017-10-09T05:18:46.925Z,1011.55
2017-10-09T05:19:55.752Z,1011.57
2017-10-09T05:21:04.582Z,1011.6
2017-10-09T05:22:13.413Z,1011.59
2017-10-09T05:23:22.564Z,1011.56
2017-10-09T05:24:31.395Z,1011.58
2017-10-09T05:25:40.226Z,1011.58
2017-10-09T05:26:49.060Z,1011.6
2017-10-09T05:27:57.885Z,1011.6
2017-10-09T05:29:06.716Z,1011.58
2017-10-09T05:30:15.546Z,1011.59
2017-10-09T05:31:24.376Z,1011.58
2017-10-09T05:32:33.205Z,1011.58
2017-10-09T05:33:42.041Z,1011.64
2017-10-09T05:34:50.871Z,1011.63
2017-10-09T05:35:59.697Z,1011.6
2017-10-09T05:37:08.527Z,1011.63
2017-10-09T05:38:17.357Z,1011.67
2017-10-09T05:39:26.187Z,1011.62
2017-10-09T05:40:35.014Z,1011.67
2017-10-09T05:41:43.848Z,1011.72
2017-10-09T05:42:52.672Z,1011.7
2017-10-09T05:44:01.506Z,1011.69
2017-10-09T05:45:10.337Z,1011.74
2017-10-09T05:46:19.491Z,1011.74
2017-10-09T05:47:28.325Z,1011.76
2017-10-09T05:48:37.158Z,1011.74
2017-10-09T05:49:46.312Z,1011.75
2017-10-09T05:50:55.155Z,1011.7
2017-10-09T05:52:03.969Z,1011.75
2017-10-09T05:53:12.795Z,1011.77
2017-10-09T05:54:21.627Z,1011.77
2017-10-09T05:55:30.457Z,1011.8
2017-10-09T05:56:39.287Z,1011.74
2017-10-09T05:57:48.117Z,1011.75
2017-10-09T05:58:56.952Z,1011.75
2017-10-09T06:00:05.784Z,1011.71
2017-10-09T06:01:14.608Z,1011.74
2017-10-09T06:02:23.441Z,1011.79
2017-10-09T06:03:32.266Z,1011.77
2017-10-09T06:04:41.097Z,1011.74
2017-10-09T06:05:49.924Z,1011.81
2017-10-09T06:06:58.759Z,1011.74
2017-10-09T06:08:07.586Z,1011.76
2017-10-09T06:09:16.413Z,1011.76
2017-10-09T06:10:25.247Z,1011.76
2017-10-09T06:11:34.080Z,1011.75
2017-10-09T06:12:42.911Z,1011.77
2017-10-09T06:13:52.064Z,1011.75
2017-10-09T06:15:00.894Z,1011.75
2017-10-09T06:16:09.727Z,1011.77
2017-10-09T06:17:18.558Z,1011.76
2017-10-09T06:18:27.390Z,1011.76
2017-10-09T06:19:36.218Z,1011.74
2017-10-09T06:20:45.049Z,1011.74
2017-10-09T06:21:53.873Z,1011.77
2017-10-09T06:23:02.706Z,1011.78
2017-10-09T06:24:11.536Z,1011.78
2017-10-09T06:25:20.370Z,1011.78
2017-10-09T06:26:29.194Z,1011.78
2017-10-09T06:27:38.024Z,1011.77
2017-10-09T06:28:46.854Z,1011.76
2017-10-09T06:29:55.679Z,1011.75
2017-10-09T06:31:04.513Z,1011.79
2017-10-09T06:32:13.343Z,1011.75
2017-10-09T06:33:22.171Z,1011.77
2017-10-09T06:34:31.001Z,1011.74
2017-10-09T06:35:39.830Z,1011.74
2017-10-09T06:36:48.662Z,1011.73
2017-10-09T06:37:57.494Z,1011.72
2017-10-09T06:39:06.654Z,1011.73
2017-10-09T06:40:15.489Z,1011.71
2017-10-09T06:41:24.318Z,1011.7
2017-10-09T06:42:33.146Z,1011.7
2017-10-09T06:43:41.970Z,1011.66
2017-10-09T06:44:50.804Z,1011.69
2017-10-09T06:45:59.631Z,1011.67
2017-10-09T06:47:08.466Z,1011.68
2017-10-09T06:48:17.290Z,1011.68
2017-10-09T06:49:26.125Z,1011.67
2017-10-09T06:50:34.947Z,1011.66
2017-10-09T06:51:43.784Z,1011.62
2017-10-09T06:52:52.615Z,1011.66
2017-10-09T06:54:01.444Z,1011.68
2017-10-09T06:55:10.275Z,1011.62
2017-10-09T06:56:19.103Z,1011.66
2017-10-09T06:57:27.933Z,1011.66
2017-10-09T06:58:36.764Z,1011.66
2017-10-09T06:59:45.604Z,1011.69
2017-10-09T07:00:54.746Z,1011.69
2017-10-09T07:02:03.905Z,1011.72
2017-10-09T07:03:12.735Z,1011.72
2017-10-09T07:04:21.567Z,1011.71
2017-10-09T07:05:30.397Z,1011.74
2017-10-09T07:06:39.224Z,1011.75
2017-10-09T07:07:48.057Z,1011.72
2017-10-09T07:08:56.883Z,1011.74
2017-10-09T07:10:05.713Z,1011.74
2017-10-09T07:11:14.543Z,1011.75
2017-10-09T07:12:23.376Z,1011.8
2017-10-09T07:13:32.206Z,1011.8
2017-10-09T07:14:41.034Z,1011.8
2017-10-09T07:15:49.862Z,1011.77
2017-10-09T07:16:58.690Z,1011.76
2017-10-09T07:18:07.521Z,1011.75
2017-10-09T07:19:16.351Z,1011.72
2017-10-09T07:20:25.184Z,1011.73
2017-10-09T07:21:34.015Z,1011.76
2017-10-09T07:22:42.842Z,1011.71
2017-10-09T07:23:51.676Z,1011.74
2017-10-09T07:25:00.510Z,1011.77
2017-10-09T07:26:09.337Z,1011.8
2017-10-09T07:27:18.168Z,1011.76
2017-10-09T07:28:27.321Z,1011.81
2017-10-09T07:29:36.148Z,1011.76
2017-10-09T07:30:44.982Z,1011.77
2017-10-09T07:31:53.818Z,1011.78
2017-10-09T07:33:02.647Z,1011.8
2017-10-09T07:34:11.479Z,1011.78
2017-10-09T07:35:20.305Z,1011.78
2017-10-09T07:36:29.138Z,1011.78
2017-10-09T07:37:37.970Z,1011.79
2017-10-09T07:38:46.798Z,1011.82
2017-10-09T07:39:55.625Z,1011.83
2017-10-09T07:41:04.457Z,1011.77
2017-10-09T07:42:13.287Z,1011.83
2017-10-09T07:43:22.116Z,1011.79
2017-10-09T07:44:30.952Z,1011.85
2017-10-09T07:45:39.783Z,1011.82
2017-10-09T07:46:48.610Z,1011.83
2017-10-09T07:47:57.439Z,1011.8
2017-10-09T07:49:06.272Z,1011.78
2017-10-09T07:50:15.102Z,1011.76
2017-10-09T07:51:23.931Z,1011.77
2017-10-09T07:52:32.767Z,1011.75
2017-10-09T07:53:41.597Z,1011.73
2017-10-09T07:54:50.431Z,1011.79
2017-10-09T07:55:59.260Z,1011.82
2017-10-09T07:57:08.094Z,1011.83
2017-10-09T07:58:16.924Z,1011.83
2017-10-09T07:59:26.108Z,1011.85
2017-10-09T08:00:34.933Z,1011.81
2017-10-09T08:01:43.766Z,1011.82
2017-10-09T08:02:52.593Z,1011.78
2017-10-09T08:04:01.428Z,1011.85
2017-10-09T08:05:10.581Z,1011.82
2017-10-09T08:06:19.413Z,1011.88
2017-10-09T08:07:28.240Z,1011.84
2017-10-09T08:08:37.070Z,1011.86
2017-10-09T08:09:45.906Z,1011.86
2017-10-09T08:10:54.735Z,1011.88
2017-10-09T08:12:03.575Z,1011.86
2017-10-09T08:13:12.734Z,1011.91
2017-10-09T08:14:21.563Z,1011.91
2017-10-09T08:15:30.392Z,1011.99
2017-10-09T08:16:39.223Z,1011.95
2017-10-09T08:17:48.056Z,1012
2017-10-09T08:18:56.883Z,1011.99
2017-10-09T08:20:05.715Z,1012.03
2017-10-09T08:21:14.543Z,1012.01
2017-10-09T08:22:23.392Z,1012
2017-10-09T08:23:32.206Z,1011.99
2017-10-09T08:24:41.032Z,1012.05
2017-10-09T08:25:49.865Z,1012.02
2017-10-09T08:26:58.696Z,1012
2017-10-09T08:28:07.529Z,1012.04
2017-10-09T08:29:16.360Z,1012.01
2017-10-09T08:30:25.189Z,1011.98
2017-10-09T08:31:34.021Z,1011.97
2017-10-09T08:32:42.850Z,1011.97
2017-10-09T08:33:51.688Z,1011.99
2017-10-09T08:35:00.519Z,1012.01
2017-10-09T08:36:09.347Z,1012.04
2017-10-09T08:37:18.177Z,1012.02
2017-10-09T08:38:27.008Z,1012.02
2017-10-09T08:39:35.839Z,1012.03
2017-10-09T08:40:44.671Z,1012.07
2017-10-09T08:41:53.494Z,1012.04
2017-10-09T08:43:02.647Z,1012.05
2017-10-09T08:44:11.483Z,1012.04
2017-10-09T08:45:20.322Z,1012.06
2017-10-09T08:46:29.146Z,1012.03
2017-10-09T08:47:37.981Z,1012.07
2017-10-09T08:48:46.807Z,1012.01
2017-10-09T08:49:55.639Z,1012.08
2017-10-09T08:51:04.472Z,1012.04
2017-10-09T08:52:13.306Z,1012.02
2017-10-09T08:53:22.131Z,1011.99
2017-10-09T08:54:30.962Z,1011.96
2017-10-09T08:55:39.794Z,1011.99
2017-10-09T08:56:48.624Z,1011.97
2017-10-09T08:57:57.448Z,1011.91
2017-10-09T08:59:06.288Z,1011.98
2017-10-09T09:00:15.118Z,1011.93
2017-10-09T09:01:23.951Z,1011.96
2017-10-09T09:02:32.778Z,1011.92
2017-10-09T09:03:41.608Z,1011.88
2017-10-09T09:04:50.445Z,1011.87
2017-10-09T09:05:59.278Z,1011.96
2017-10-09T09:07:08.104Z,1011.86
2017-10-09T09:08:16.939Z,1011.86
2017-10-09T09:09:25.771Z,1011.88
2017-10-09T09:10:34.599Z,1011.86
2017-10-09T09:11:43.433Z,1011.89
2017-10-09T09:12:52.266Z,1011.85
2017-10-09T09:14:01.092Z,1011.86
2017-10-09T09:15:09.928Z,1011.86
2017-10-09T09:16:18.761Z,1011.88
2017-10-09T09:17:27.594Z,1011.9
2017-10-09T09:18:36.426Z,1011.86
2017-10-09T09:19:45.261Z,1011.84
2017-10-09T09:20:54.091Z,1011.81
2017-10-09T09:22:02.922Z,1011.82
2017-10-09T09:23:11.754Z,1011.81
2017-10-09T09:24:20.583Z,1011.85
2017-10-09T09:25:29.414Z,1011.83
2017-10-09T09:26:38.246Z,1011.84
2017-10-09T09:27:47.077Z,1011.84
2017-10-09T09:28:55.910Z,1011.82
2017-10-09T09:30:04.793Z,1011.83
2017-10-09T09:31:13.624Z,1011.83
2017-10-09T09:32:22.456Z,1011.77
2017-10-09T09:33:31.289Z,1011.87
2017-10-09T09:34:40.122Z,1011.86
2017-10-09T09:35:48.947Z,1011.81
2017-10-09T09:36:57.781Z,1011.8
2017-10-09T09:38:06.614Z,1011.83
2017-10-09T09:39:15.448Z,1011.81
2017-10-09T09:40:24.281Z,1011.77
2017-10-09T09:41:33.109Z,1011.8
2017-10-09T09:42:41.942Z,1011.73
2017-10-09T09:43:50.772Z,1011.8
2017-10-09T09:44:59.607Z,1011.8
2017-10-09T09:46:08.436Z,1011.81
2017-10-09T09:47:17.597Z,1011.79
2017-10-09T09:48:26.428Z,1011.82
2017-10-09T09:49:35.261Z,1011.78
2017-10-09T09:50:44.087Z,1011.79
2017-10-09T09:51:52.918Z,1011.81
2017-10-09T09:53:01.747Z,1011.76
2017-10-09T09:54:10.582Z,1011.77
2017-10-09T09:55:19.416Z,1011.78
2017-10-09T09:56:28.250Z,1011.76
2017-10-09T09:57:37.080Z,1011.73
2017-10-09T09:58:45.913Z,1011.78
2017-10-09T09:59:54.749Z,1011.77
2017-10-09T10:01:03.581Z,1011.74
2017-10-09T10:02:12.416Z,1011.77
2017-10-09T10:03:21.245Z,1011.8
2017-10-09T10:04:30.073Z,1011.74
2017-10-09T10:05:38.907Z,1011.67
2017-10-09T10:06:47.738Z,1011.66
2017-10-09T10:07:56.568Z,1011.77
2017-10-09T10:09:05.397Z,1011.74
2017-10-09T10:10:14.236Z,1011.72
2017-10-09T10:11:23.066Z,1011.77
2017-10-09T10:12:31.896Z,1011.79
2017-10-09T10:13:40.729Z,1011.78
2017-10-09T10:14:49.557Z,1011.75
2017-10-09T10:15:58.388Z,1011.72
2017-10-09T10:17:07.219Z,1011.7
2017-10-09T10:18:16.052Z,1011.75
2017-10-09T10:19:24.885Z,1011.76
2017-10-09T10:20:33.716Z,1011.77
2017-10-09T10:21:42.548Z,1011.67
2017-10-09T10:22:51.381Z,1011.7
2017-10-09T10:24:00.217Z,1011.66
2017-10-09T10:25:09.049Z,1011.67
2017-10-09T10:26:17.879Z,1011.66
2017-10-09T10:27:26.714Z,1011.71
2017-10-09T10:28:35.547Z,1011.72
2017-10-09T10:29:44.382Z,1011.7
2017-10-09T10:30:53.218Z,1011.67
2017-10-09T10:32:02.052Z,1011.69
2017-10-09T10:33:10.881Z,1011.68
2017-10-09T10:34:19.715Z,1011.77
2017-10-09T10:35:28.552Z,1011.69
2017-10-09T10:36:37.379Z,1011.72
2017-10-09T10:37:46.217Z,1011.68
2017-10-09T10:38:55.046Z,1011.71
2017-10-09T10:40:03.881Z,1011.66
2017-10-09T10:41:13.034Z,1011.7
2017-10-09T10:42:21.868Z,1011.7
2017-10-09T10:43:30.700Z,1011.64
2017-10-09T10:44:39.533Z,1011.6
2017-10-09T10:45:48.362Z,1011.58
2017-10-09T10:46:57.194Z,1011.63
2017-10-09T10:48:06.029Z,1011.59
2017-10-09T10:49:14.869Z,1011.58
2017-10-09T10:50:23.700Z,1011.55
2017-10-09T10:51:32.536Z,1011.54
2017-10-09T10:52:41.366Z,1011.51
2017-10-09T10:53:50.193Z,1011.5
2017-10-09T10:54:59.027Z,1011.51
2017-10-09T10:56:07.861Z,1011.5
2017-10-09T10:57:16.696Z,1011.5
2017-10-09T10:58:25.527Z,1011.49
2017-10-09T10:59:34.362Z,1011.4
2017-10-09T11:00:43.193Z,1011.41
2017-10-09T11:01:52.027Z,1011.5
2017-10-09T11:03:00.863Z,1011.43
2017-10-09T11:04:09.692Z,1011.42
2017-10-09T11:05:18.524Z,1011.44
2017-10-09T11:06:27.358Z,1011.35
2017-10-09T11:07:36.194Z,1011.36
2017-10-09T11:08:45.028Z,1011.44
2017-10-09T11:09:53.869Z,1011.39
2017-10-09T11:11:02.701Z,1011.42
2017-10-09T11:12:11.527Z,1011.4
2017-10-09T11:13:20.363Z,1011.4
2017-10-09T11:14:29.197Z,1011.42
2017-10-09T11:15:38.034Z,1011.37
2017-10-09T11:16:46.869Z,1011.3
2017-10-09T11:17:55.699Z,1011.29
2017-10-09T11:19:04.531Z,1011.33
2017-10-09T11:20:13.367Z,1011.35
2017-10-09T11:21:22.199Z,1011.35
2017-10-09T11:22:31.029Z,1011.3
2017-10-09T11:23:39.863Z,1011.37
2017-10-09T11:24:48.691Z,1011.31
2017-10-09T11:25:57.522Z,1011.3
2017-10-09T11:27:06.360Z,1011.35
2017-10-09T11:28:15.190Z,1011.3
2017-10-09T11:29:24.024Z,1011.28
2017-10-09T11:30:32.859Z,1011.31
2017-10-09T11:31:41.690Z,1011.23
2017-10-09T11:32:50.525Z,1011.3
2017-10-09T11:33:59.357Z,1011.26
2017-10-09T11:35:08.190Z,1011.27
2017-10-09T11:36:17.020Z,1011.33
2017-10-09T11:37:25.860Z,1011.29
2017-10-09T11:38:34.690Z,1011.24
2017-10-09T11:39:43.522Z,1011.31
2017-10-09T11:40:52.360Z,1011.24
2017-10-09T11:42:01.197Z,1011.28
2017-10-09T11:43:10.354Z,1011.27
2017-10-09T11:44:19.188Z,1011.26
2017-10-09T11:45:28.021Z,1011.26
2017-10-09T11:46:36.853Z,1011.29
2017-10-09T11:47:45.684Z,1011.22
2017-10-09T11:48:54.518Z,1011.26
2017-10-09T11:50:03.353Z,1011.21
2017-10-09T11:51:12.182Z,1011.23
2017-10-09T11:52:21.015Z,1011.21
2017-10-09T11:53:29.851Z,1011.21
2017-10-09T11:54:38.681Z,1011.31
2017-10-09T11:55:47.516Z,1011.29
2017-10-09T11:56:56.349Z,1011.33
2017-10-09T11:58:05.182Z,1011.28
2017-10-09T11:59:14.014Z,1011.25
2017-10-09T12:00:22.851Z,1011.24
2017-10-09T12:01:31.686Z,1011.17
2017-10-09T12:02:40.515Z,1011.23
2017-10-09T12:03:49.355Z,1011.21
2017-10-09T12:04:58.188Z,1011.19
2017-10-09T12:06:07.027Z,1011.24
2017-10-09T12:07:15.861Z,1011.16
2017-10-09T12:08:24.695Z,1011.19
2017-10-09T12:09:33.524Z,1011.26
2017-10-09T12:10:42.355Z,1011.16
2017-10-09T12:11:51.191Z,1011.17
2017-10-09T12:13:00.343Z,1011.26
2017-10-09T12:14:09.183Z,1011.21
2017-10-09T12:15:18.013Z,1011.16
2017-10-09T12:16:26.842Z,1011.18
2017-10-09T12:17:35.678Z,1011.19
2017-10-09T12:18:44.520Z,1011.13
2017-10-09T12:19:53.353Z,1011.11
2017-10-09T12:21:02.512Z,1011.14
2017-10-09T12:22:11.338Z,1011.13
2017-10-09T12:23:20.169Z,1011.16
2017-10-09T12:24:29.005Z,1011.13
2017-10-09T12:25:37.843Z,1011.12
2017-10-09T12:26:46.673Z,1011.04
2017-10-09T12:27:55.510Z,1011.1
2017-10-09T12:29:04.336Z,1011.06
2017-10-09T12:30:13.171Z,1010.99
2017-10-09T12:31:22.010Z,1011.03
2017-10-09T12:32:30.844Z,1010.98
2017-10-09T12:33:39.675Z,1011.01
2017-10-09T12:34:48.511Z,1011.06
2017-10-09T12:35:57.346Z,1011.04
2017-10-09T12:37:06.179Z,1011.04
2017-10-09T12:38:15.018Z,1011.06
2017-10-09T12:39:23.850Z,1011.02
2017-10-09T12:40:32.682Z,1011
2017-10-09T12:41:41.520Z,1011.01
2017-10-09T12:42:50.351Z,1011.05
2017-10-09T12:43:59.187Z,1011.03
2017-10-09T12:45:08.020Z,1011
2017-10-09T12:46:16.852Z,1011.02
2017-10-09T12:47:25.685Z,1010.99
2017-10-09T12:48:34.520Z,1010.99
2017-10-09T12:49:43.354Z,1010.96
2017-10-09T12:50:52.191Z,1010.99
2017-10-09T12:52:01.029Z,1010.92
2017-10-09T12:53:09.864Z,1011.02
2017-10-09T12:54:18.688Z,1010.94
2017-10-09T12:55:27.522Z,1010.94
2017-10-09T12:56:36.359Z,1010.91
2017-10-09T12:57:45.191Z,1010.9
2017-10-09T12:58:54.026Z,1010.91
2017-10-09T13:00:03.185Z,1010.93
2017-10-09T13:01:12.016Z,1010.97
2017-10-09T13:02:20.849Z,1010.84
2017-10-09T13:03:29.682Z,1010.91
2017-10-09T13:04:38.512Z,1010.91
2017-10-09T13:05:47.673Z,1010.86
2017-10-09T13:06:56.514Z,1010.89
2017-10-09T13:08:05.344Z,1010.87
2017-10-09T13:09:14.181Z,1010.92
2017-10-09T13:10:23.014Z,1010.88
2017-10-09T13:11:31.848Z,1010.89
2017-10-09T13:12:40.681Z,1010.92
2017-10-09T13:13:49.519Z,1010.94
2017-10-09T13:14:58.350Z,1010.9
2017-10-09T13:16:07.181Z,1010.97
2017-10-09T13:17:16.015Z,1010.95
2017-10-09T13:18:24.855Z,1010.94
2017-10-09T13:19:33.694Z,1010.97
2017-10-09T13:20:42.535Z,1010.93
2017-10-09T13:21:51.363Z,1010.97
2017-10-09T13:23:00.198Z,1010.94
2017-10-09T13:24:09.029Z,1011
2017-10-09T13:25:17.865Z,1010.92
2017-10-09T13:26:26.698Z,1010.88
2017-10-09T13:27:35.542Z,1010.89
2017-10-09T13:28:44.376Z,1010.91
2017-10-09T13:29:53.211Z,1010.89
2017-10-09T13:31:02.045Z,1010.85
2017-10-09T13:32:10.880Z,1010.9
2017-10-09T13:33:19.715Z,1010.85
2017-10-09T13:34:28.547Z,1010.84
2017-10-09T13:35:37.379Z,1010.84
2017-10-09T13:36:46.212Z,1010.87
2017-10-09T13:37:55.049Z,1010.87
2017-10-09T13:39:03.888Z,1010.87
2017-10-09T13:40:12.721Z,1010.91
2017-10-09T13:41:21.557Z,1010.9
2017-10-09T13:42:30.383Z,1010.91
2017-10-09T13:43:39.219Z,1010.91
2017-10-09T13:44:48.053Z,1010.9
2017-10-09T13:45:56.889Z,1010.88
2017-10-09T13:47:05.724Z,1010.87
2017-10-09T13:48:14.558Z,1010.87
2017-10-09T13:49:23.389Z,1010.83
2017-10-09T13:50:32.226Z,1010.8
2017-10-09T13:51:41.057Z,1010.8
2017-10-09T13:52:49.892Z,1010.85
2017-10-09T13:53:59.374Z,1010.8
2017-10-09T13:55:08.206Z,1010.82
2017-10-09T13:56:17.045Z,1010.8